Time;durP1;ratioP1;P1;durP2;ratioP2;P2;SDS_P1;SDS_P2;PMS_P1;PMS_P2;Temp;Humidity;BMP_temperature;BMP_pressure;BME280_temperature;BME280_humidity;BME280_pressure;Samples;Min_cycle;Max_cycle;Signal;HPM_P1;HPM_P2
2021/12/25 00:01:04;;;;;;;5.15;3.10;;;31.80;94.90;;;;;;5033762;28;20103;-64
2021/12/25 00:03:32;;;;;;;2.90;2.00;;;31.90;95.20;;;;;;5033057;28;20126;-66
2021/12/25 00:05:59;;;;;;;4.20;2.75;;;31.70;94.70;;;;;;5035023;28;20167;-69
2021/12/25 00:08:29;;;;;;;3.33;2.22;;;31.80;95.40;;;;;;5035701;28;20119;-68
2021/12/25 00:10:58;;;;;;;3.75;2.90;;;31.90;94.30;;;;;;5034956;28;20101;-68
2021/12/25 00:13:26;;;;;;;3.72;2.40;;;32.40;94.20;;;;;;5036050;28;20025;-73
2021/12/25 00:15:54;;;;;;;3.58;2.38;;;32.20;92.60;;;;;;5036520;28;20029;-70
2021/12/25 00:18:21;;;;;;;3.50;2.00;;;32.30;93.00;;;;;;5040722;28;20589;-66
2021/12/25 00:20:48;;;;;;;4.53;2.25;;;32.40;92.40;;;;;;5038582;28;20029;-66
2021/12/25 00:23:16;;;;;;;3.33;1.92;;;32.60;91.90;;;;;;5036218;28;20127;-65
2021/12/25 00:25:48;;;;;;;3.83;2.00;;;32.80;91.10;;;;;;5034578;28;20095;-68
2021/12/25 00:31:10;;;;;;;4.57;2.47;;;32.90;92.20;;;;;;5032758;28;20043;-63
2021/12/25 00:36:15;;;;;;;3.78;3.10;;;33.20;90.80;;;;;;5034057;28;20029;-64
2021/12/25 00:38:43;;;;;;;5.90;4.05;;;33.40;88.10;;;;;;5033587;28;20029;-66
2021/12/25 00:41:12;;;;;;;2.92;2.15;;;33.50;89.80;;;;;;5032280;28;20112;-65
2021/12/25 00:43:40;;;;;;;4.03;2.60;;;33.50;87.90;;;;;;5032667;28;20517;-70
2021/12/25 00:46:07;;;;;;;4.15;2.00;;;33.50;87.40;;;;;;5028738;28;20045;-71
2021/12/25 00:48:34;;;;;;;4.25;1.90;;;33.70;86.10;;;;;;5033486;28;20025;-73
2021/12/25 00:51:02;;;;;;;3.67;2.47;;;34.00;83.20;;;;;;5033190;28;20048;-62
2021/12/25 00:53:29;;;;;;;3.63;1.85;;;34.00;83.70;;;;;;5035494;28;20029;-72
2021/12/25 00:55:56;;;;;;;3.33;1.88;;;33.90;84.40;;;;;;5033230;28;20402;-64
2021/12/25 00:58:24;;;;;;;3.22;1.40;;;34.10;85.60;;;;;;5035458;28;20029;-67
2021/12/25 01:00:51;;;;;;;4.90;1.98;;;34.30;81.80;;;;;;5038823;28;20495;-66
2021/12/25 01:03:18;;;;;;;3.28;1.40;;;34.50;79.30;;;;;;5034608;28;20398;-68
2021/12/25 01:05:45;;;;;;;5.05;1.55;;;34.80;75.90;;;;;;5039022;28;20506;-67
2021/12/25 01:08:12;;;;;;;4.38;2.03;;;34.80;77.90;;;;;;5038102;28;20063;-64
2021/12/25 01:10:40;;;;;;;3.75;2.50;;;35.10;74.80;;;;;;5039175;28;20032;-67
2021/12/25 01:13:15;;;;;;;3.92;3.13;;;35.50;77.30;;;;;;5037920;28;20024;-71
2021/12/25 01:18:54;;;;;;;3.20;1.98;;;35.30;75.10;;;;;;5039427;28;20575;-67
2021/12/25 01:24:00;;;;;;;2.95;1.60;;;35.50;75.30;;;;;;5049696;28;20039;-64
2021/12/25 01:26:52;;;;;;;6.03;2.45;;;35.70;73.30;;;;;;5036466;28;20045;-67
2021/12/25 01:29:32;;;;;;;3.65;1.90;;;35.40;69.20;;;;;;5047468;28;20032;-67
2021/12/25 01:39:52;;;;;;;2.58;1.67;;;36.20;67.00;;;;;;5043176;28;20034;-65
2021/12/25 01:47:49;;;;;;;2.65;1.60;;;36.40;66.00;;;;;;5044956;28;20569;-67
2021/12/25 01:50:23;;;;;;;3.13;1.35;;;36.50;67.00;;;;;;5047368;28;20051;-65
2021/12/25 01:52:51;;;;;;;3.17;1.92;;;36.80;61.80;;;;;;5044841;28;20391;-67
2021/12/25 01:55:24;;;;;;;2.85;1.88;;;36.40;60.70;;;;;;5047694;28;20048;-66
2021/12/25 01:57:54;;;;;;;2.55;1.60;;;36.50;64.00;;;;;;5039485;28;20025;-65
2021/12/25 02:00:35;;;;;;;2.90;1.60;;;36.80;60.60;;;;;;5050033;28;20513;-63
2021/12/25 02:03:04;;;;;;;2.92;1.92;;;36.80;64.00;;;;;;5046589;28;20025;-67
2021/12/25 02:05:32;;;;;;;2.80;1.80;;;37.00;65.20;;;;;;5043538;28;20040;-66
2021/12/25 02:07:59;;;;;;;3.85;1.85;;;37.30;60.70;;;;;;5043848;28;20096;-66
2021/12/25 02:10:26;;;;;;;3.88;2.20;;;37.50;64.10;;;;;;5045767;28;20036;-67
2021/12/25 02:12:54;;;;;;;5.50;4.85;;;37.50;60.10;;;;;;5048220;28;20486;-66
2021/12/25 02:15:24;;;;;;;3.60;2.53;;;37.90;59.80;;;;;;5041142;28;20067;-67
2021/12/25 02:18:07;;;;;;;2.65;1.60;;;37.80;60.60;;;;;;5037474;28;20017;-66
2021/12/25 02:20:45;;;;;;;2.45;1.60;;;38.20;56.20;;;;;;5049364;28;20559;-65
2021/12/25 02:23:19;;;;;;;3.08;1.42;;;38.50;56.10;;;;;;5045120;28;20399;-66
2021/12/25 02:25:48;;;;;;;2.28;1.90;;;38.70;56.90;;;;;;5046084;28;20017;-66
2021/12/25 02:28:16;;;;;;;2.75;2.10;;;38.90;56.60;;;;;;5042204;28;20071;-67
2021/12/25 02:30:46;;;;;;;2.33;1.70;;;38.60;56.50;;;;;;5045164;28;20108;-65
2021/12/25 02:33:15;;;;;;;2.60;1.50;;;38.70;55.90;;;;;;5043817;28;20136;-63
2021/12/25 02:35:44;;;;;;;3.10;2.53;;;38.80;55.40;;;;;;5041686;28;20047;-64
2021/12/25 02:38:11;;;;;;;2.80;2.10;;;38.80;57.10;;;;;;5042176;28;20418;-68
2021/12/25 02:40:38;;;;;;;3.00;1.98;;;38.70;55.30;;;;;;5042747;28;20022;-68
2021/12/25 02:43:05;;;;;;;2.75;1.55;;;38.80;52.50;;;;;;5037617;28;20026;-64
2021/12/25 02:45:32;;;;;;;2.40;1.35;;;38.90;53.20;;;;;;5034433;28;20522;-67
2021/12/25 02:48:09;;;;;;;1.60;1.40;;;39.20;51.50;;;;;;5039315;28;20107;-63
2021/12/25 02:50:39;;;;;;;3.63;1.35;;;39.40;50.80;;;;;;5041347;28;20017;-71
2021/12/25 02:53:08;;;;;;;5.05;2.22;;;39.30;52.60;;;;;;5046716;28;20031;-63
2021/12/25 02:55:37;;;;;;;2.65;1.90;;;39.30;51.40;;;;;;5044010;28;20474;-69
2021/12/25 02:58:05;;;;;;;3.92;2.92;;;39.10;50.70;;;;;;5043125;28;20017;-65
2021/12/25 03:00:39;;;;;;;2.47;1.83;;;39.00;49.40;;;;;;5042659;28;20034;-70
2021/12/25 03:03:07;;;;;;;3.40;1.70;;;38.80;50.30;;;;;;5040227;28;20036;-68
2021/12/25 03:05:36;;;;;;;4.53;1.67;;;38.90;52.60;;;;;;5047184;28;20505;-67
2021/12/25 03:08:05;;;;;;;4.57;1.70;;;39.20;50.80;;;;;;5050170;28;20048;-70
2021/12/25 03:10:34;;;;;;;2.72;1.48;;;38.80;51.30;;;;;;5046029;28;20376;-71
2021/12/25 03:15:45;;;;;;;1.63;1.42;;;38.70;51.60;;;;;;5043307;28;20503;-67
2021/12/25 03:18:18;;;;;;;3.10;1.88;;;39.30;48.00;;;;;;5047357;28;20101;-71
2021/12/25 03:20:47;;;;;;;4.32;1.63;;;39.40;49.10;;;;;;5044430;28;20112;-65
2021/12/25 03:23:17;;;;;;;3.35;1.83;;;39.30;50.80;;;;;;5042441;28;20013;-71
2021/12/25 03:25:46;;;;;;;2.72;1.83;;;39.40;49.70;;;;;;5046902;28;20112;-69
2021/12/25 03:28:15;;;;;;;3.33;1.88;;;39.70;49.50;;;;;;5040852;28;20103;-67
2021/12/25 03:30:43;;;;;;;2.78;1.73;;;40.00;47.90;;;;;;5036936;28;20038;-67
2021/12/25 03:33:13;;;;;;;2.42;1.88;;;40.30;46.60;;;;;;5040273;28;20031;-65
2021/12/25 03:35:40;;;;;;;2.50;1.70;;;40.30;45.40;;;;;;5043437;28;20052;-66
2021/12/25 03:38:11;;;;;;;1.40;1.30;;;39.30;47.60;;;;;;5044415;28;20573;-64
2021/12/25 03:40:39;;;;;;;3.55;1.75;;;39.20;48.80;;;;;;5046086;28;20047;-66
2021/12/25 03:43:06;;;;;;;2.30;1.55;;;38.90;50.20;;;;;;5041096;28;20029;-66
2021/12/25 03:45:35;;;;;;;2.38;1.73;;;39.20;50.00;;;;;;4694429;28;9999789;-71
2021/12/25 03:48:15;;;;;;;3.05;1.90;;;39.40;49.30;;;;;;5040777;28;20057;-70
2021/12/25 03:57:36;;;;;;;2.78;1.38;;;40.40;46.20;;;;;;5036510;28;20545;-65
2021/12/25 03:59:14;;;;;;;5.57;2.25;;;40.30;46.40;;;;;;5027456;28;20041;-64
2021/12/25 04:01:46;;;;;;;2.85;2.03;;;40.20;46.50;;;;;;5030421;28;20083;-65
2021/12/25 04:04:25;;;;;;;2.30;1.75;;;40.20;46.50;;;;;;5033036;28;20048;-65
2021/12/25 04:07:03;;;;;;;4.15;3.58;;;40.40;47.40;;;;;;5034227;28;20569;-65
2021/12/25 04:09:33;;;;;;;2.42;1.50;;;40.20;45.90;;;;;;5029530;28;20037;-67
2021/12/25 04:12:04;;;;;;;3.28;1.50;;;40.40;45.70;;;;;;5026885;28;20025;-65
2021/12/25 04:14:31;;;;;;;4.63;2.60;;;40.80;46.90;;;;;;5034370;28;20411;-65
2021/12/25 04:16:58;;;;;;;3.28;1.80;;;41.20;48.10;;;;;;5027122;28;20026;-73
2021/12/25 04:19:26;;;;;;;3.33;1.70;;;41.10;46.50;;;;;;5027861;28;20021;-67
2021/12/25 04:21:58;;;;;;;1.77;1.40;;;40.40;46.80;;;;;;5021510;28;20025;-66
2021/12/25 04:24:27;;;;;;;2.75;1.50;;;40.10;45.80;;;;;;5037571;28;20033;-65
2021/12/25 04:26:54;;;;;;;2.80;1.52;;;39.20;45.60;;;;;;5042205;28;20412;-72
2021/12/25 05:04:57;;;;;;;3.55;1.50;;;35.30;66.30;;;;;;5024379;28;20415;-70
2021/12/25 05:07:24;;;;;;;2.38;1.30;;;35.40;65.10;;;;;;5026747;28;20091;-64
2021/12/25 05:09:51;;;;;;;3.80;1.33;;;35.60;66.00;;;;;;5022751;28;20022;-67
2021/12/25 05:12:18;;;;;;;2.67;1.20;;;35.50;64.50;;;;;;5023774;28;20025;-65
2021/12/25 05:14:45;;;;;;;2.63;1.27;;;35.30;66.30;;;;;;5026322;28;20026;-63
2021/12/25 05:17:13;;;;;;;3.15;1.42;;;35.00;65.50;;;;;;5021328;28;20029;-67
2021/12/25 05:19:40;;;;;;;2.55;1.40;;;34.80;68.00;;;;;;5030622;28;20049;-66
2021/12/25 05:22:07;;;;;;;2.92;1.45;;;34.70;68.70;;;;;;5021764;28;20026;-64
2021/12/25 05:24:35;;;;;;;2.50;0.98;;;34.50;70.30;;;;;;5033316;28;20021;-65
2021/12/25 05:27:02;;;;;;;4.90;2.20;;;34.40;71.70;;;;;;5028000;28;20115;-65
2021/12/25 05:29:33;;;;;;;3.35;1.60;;;34.20;71.80;;;;;;5026249;28;20025;-72
2021/12/25 05:32:00;;;;;;;4.37;1.87;;;34.00;72.90;;;;;;5026079;28;20031;-66
2021/12/25 05:34:27;;;;;;;3.83;1.42;;;33.70;74.60;;;;;;5031539;28;20093;-68
2021/12/25 05:36:54;;;;;;;3.60;1.88;;;33.70;75.70;;;;;;5028102;28;20064;-66
2021/12/25 05:39:22;;;;;;;2.63;1.40;;;33.40;76.90;;;;;;5025235;28;20104;-66
2021/12/25 05:41:50;;;;;;;4.80;1.75;;;33.30;79.00;;;;;;5020757;28;20079;-65
2021/12/25 05:44:18;;;;;;;3.70;2.28;;;33.10;80.20;;;;;;5035548;22;20006;-67
2021/12/25 05:46:45;;;;;;;4.97;2.72;;;32.80;81.60;;;;;;5060227;28;20119;-67
2021/12/25 05:49:12;;;;;;;4.47;1.35;;;32.70;82.00;;;;;;5062112;28;20036;-67
2021/12/25 05:51:39;;;;;;;3.17;1.27;;;32.50;83.60;;;;;;5061619;28;20158;-70
2021/12/25 05:54:07;;;;;;;3.03;1.20;;;32.40;85.10;;;;;;5058832;28;20017;-71
2021/12/25 05:56:34;;;;;;;3.85;1.88;;;32.30;86.80;;;;;;5059557;28;20474;-70
2021/12/25 05:59:01;;;;;;;3.58;1.65;;;32.30;87.00;;;;;;5059311;28;20021;-66
2021/12/25 06:01:28;;;;;;;4.13;1.33;;;32.20;88.10;;;;;;5062629;28;20074;-71
2021/12/25 06:03:56;;;;;;;3.85;1.52;;;32.00;90.10;;;;;;5061605;28;20032;-69
2021/12/25 06:06:24;;;;;;;3.22;1.35;;;31.70;90.20;;;;;;5057951;28;20028;-66
2021/12/25 06:08:52;;;;;;;5.07;1.70;;;31.40;90.80;;;;;;5060687;28;20028;-67
2021/12/25 06:11:22;;;;;;;3.15;1.20;;;31.20;91.90;;;;;;5059836;28;20416;-67
2021/12/25 06:14:06;;;;;;;3.83;1.25;;;31.10;92.40;;;;;;5060529;28;20025;-67
2021/12/25 06:16:33;;;;;;;3.30;1.52;;;30.90;93.20;;;;;;5065467;28;20031;-69
2021/12/25 06:19:00;;;;;;;3.22;1.80;;;30.50;94.20;;;;;;5062843;28;20024;-65
2021/12/25 06:21:27;;;;;;;4.85;1.70;;;30.40;94.90;;;;;;5063501;28;20027;-66
2021/12/25 06:23:54;;;;;;;3.75;1.63;;;30.10;95.70;;;;;;5060250;28;20050;-70
2021/12/25 06:26:21;;;;;;;6.53;1.95;;;29.90;96.10;;;;;;5063771;28;20036;-65
2021/12/25 06:28:48;;;;;;;4.07;2.45;;;29.90;96.90;;;;;;5066226;28;20377;-65
2021/12/25 06:31:15;;;;;;;5.38;1.65;;;29.80;97.40;;;;;;5068848;28;20028;-67
2021/12/25 06:33:42;;;;;;;8.15;2.28;;;29.60;97.90;;;;;;5066036;28;20032;-67
2021/12/25 06:36:09;;;;;;;3.97;1.48;;;29.50;98.50;;;;;;5066029;28;20052;-72
2021/12/25 06:38:39;;;;;;;3.72;1.58;;;29.40;98.50;;;;;;5066426;28;20463;-70
2021/12/25 06:41:07;;;;;;;4.97;1.60;;;29.30;98.50;;;;;;5067519;28;20032;-69
2021/12/25 06:43:35;;;;;;;7.50;1.60;;;29.20;98.60;;;;;;5065735;28;20029;-67
2021/12/25 06:46:03;;;;;;;4.30;1.88;;;29.00;99.00;;;;;;5066480;28;20091;-72
2021/12/25 06:48:31;;;;;;;4.32;1.42;;;28.90;99.30;;;;;;5064635;28;20032;-69
2021/12/25 06:50:58;;;;;;;4.63;2.03;;;28.80;99.90;;;;;;5066680;28;20034;-67
2021/12/25 06:53:25;;;;;;;7.72;4.88;;;28.70;99.90;;;;;;5065887;28;20009;-69
2021/12/25 06:55:52;;;;;;;4.20;2.67;;;28.60;99.90;;;;;;5067069;28;20108;-68
2021/12/25 06:58:19;;;;;;;6.10;3.67;;;28.50;99.90;;;;;;5067150;28;20033;-67
2021/12/25 07:00:46;;;;;;;6.10;2.05;;;28.40;99.90;;;;;;5065926;28;20043;-69
2021/12/25 07:03:13;;;;;;;4.43;1.95;;;28.50;99.90;;;;;;5066522;28;20106;-67
2021/12/25 07:05:40;;;;;;;10.35;4.57;;;28.40;99.90;;;;;;5066580;28;20396;-69
2021/12/25 07:08:07;;;;;;;6.47;3.08;;;28.30;99.90;;;;;;5066537;28;20467;-70
2021/12/25 07:10:34;;;;;;;7.13;2.38;;;28.20;99.90;;;;;;5067394;28;20564;-67
2021/12/25 07:13:01;;;;;;;8.35;1.98;;;28.20;99.90;;;;;;5063630;28;20028;-69
2021/12/25 07:15:28;;;;;;;3.35;1.60;;;28.20;99.90;;;;;;5066233;28;20057;-67
2021/12/25 07:17:56;;;;;;;4.85;2.97;;;28.10;99.90;;;;;;5067370;28;20103;-73
2021/12/25 07:20:23;;;;;;;4.57;1.58;;;28.00;99.90;;;;;;5069093;28;20021;-67
2021/12/25 07:22:50;;;;;;;3.92;1.50;;;27.90;99.90;;;;;;5066597;28;20475;-67
2021/12/25 07:25:17;;;;;;;5.05;1.90;;;27.90;99.90;;;;;;5066525;28;20020;-67
2021/12/25 07:27:44;;;;;;;6.97;5.03;;;27.80;99.90;;;;;;5064813;28;21364;-67
2021/12/25 07:30:11;;;;;;;5.00;3.20;;;27.80;99.90;;;;;;5065473;28;20132;-67
2021/12/25 07:32:38;;;;;;;8.63;6.22;;;27.80;99.90;;;;;;5065615;28;20024;-68
2021/12/25 07:35:07;;;;;;;6.90;3.47;;;27.70;99.90;;;;;;5066084;28;20027;-68
2021/12/25 07:37:34;;;;;;;5.30;3.65;;;27.70;99.90;;;;;;5064310;28;20023;-67
2021/12/25 07:40:03;;;;;;;8.20;4.22;;;27.70;99.90;;;;;;5066022;28;20029;-73
2021/12/25 07:42:30;;;;;;;6.95;2.88;;;27.70;99.90;;;;;;5065470;28;20030;-73
2021/12/25 07:45:03;;;;;;;5.75;2.70;;;27.60;99.90;;;;;;5065566;28;20036;-70
2021/12/25 07:47:33;;;;;;;7.78;4.18;;;27.50;99.90;;;;;;5065204;28;20082;-70
2021/12/25 07:50:01;;;;;;;2.05;1.20;;;27.40;99.90;;;;;;5066027;28;20043;-67
2021/12/25 07:52:28;;;;;;;6.78;1.88;;;27.30;99.90;;;;;;5064217;28;20166;-72
2021/12/25 07:54:55;;;;;;;4.75;1.77;;;27.10;99.90;;;;;;5065818;28;20017;-73
2021/12/25 07:57:22;;;;;;;5.38;1.65;;;27.20;99.90;;;;;;5064961;28;20021;-69
2021/12/25 07:59:49;;;;;;;4.28;1.50;;;27.10;99.90;;;;;;5063751;28;20013;-73
2021/12/25 08:02:17;;;;;;;2.30;1.42;;;27.20;99.90;;;;;;5064803;28;20032;-69
2021/12/25 08:04:44;;;;;;;4.05;2.00;;;27.30;99.90;;;;;;5064253;28;20278;-68
2021/12/25 08:07:11;;;;;;;4.85;2.85;;;27.20;99.90;;;;;;5063586;28;20025;-68
2021/12/25 08:09:38;;;;;;;9.15;3.47;;;27.10;99.90;;;;;;5064857;28;20193;-69
2021/12/25 08:12:06;;;;;;;7.43;3.97;;;27.10;99.90;;;;;;5061245;28;20491;-68
2021/12/25 08:14:34;;;;;;;4.03;2.75;;;27.00;99.90;;;;;;5064737;28;20481;-68
2021/12/25 08:17:03;;;;;;;6.97;3.15;;;27.10;99.90;;;;;;5065167;28;20490;-68
2021/12/25 08:19:30;;;;;;;6.30;4.55;;;27.10;99.90;;;;;;5063551;28;20024;-73
2021/12/25 08:21:57;;;;;;;7.30;4.35;;;27.10;99.90;;;;;;5066214;28;20027;-68
2021/12/25 08:24:24;;;;;;;5.18;3.30;;;27.10;99.90;;;;;;5062997;28;20100;-68
2021/12/25 08:26:52;;;;;;;4.63;1.98;;;27.40;99.90;;;;;;5064224;28;20048;-68
2021/12/25 08:29:19;;;;;;;4.45;2.83;;;27.90;99.90;;;;;;5063146;28;20078;-70
2021/12/25 08:31:46;;;;;;;3.67;1.90;;;28.10;99.90;;;;;;5062720;28;20052;-68
2021/12/25 08:34:13;;;;;;;3.38;1.67;;;28.10;99.90;;;;;;5060505;28;20020;-68
2021/12/25 08:36:41;;;;;;;7.57;2.03;;;28.00;99.90;;;;;;5061584;28;20499;-73
2021/12/25 08:39:08;;;;;;;3.33;1.10;;;27.80;99.90;;;;;;5059539;28;20078;-70
2021/12/25 08:41:37;;;;;;;4.40;2.08;;;27.60;99.90;;;;;;5061231;28;20040;-68
2021/12/25 08:44:19;;;;;;;3.90;1.70;;;27.40;99.90;;;;;;5061888;28;20016;-68
2021/12/25 08:46:56;;;;;;;6.23;1.67;;;27.30;99.90;;;;;;5060636;28;20032;-68
2021/12/25 08:49:31;;;;;;;3.15;1.50;;;27.10;99.90;;;;;;5061376;28;20374;-68
2021/12/25 08:52:01;;;;;;;5.47;2.38;;;27.10;99.90;;;;;;5060549;28;20444;-71
2021/12/25 08:54:29;;;;;;;4.03;1.63;;;27.00;99.90;;;;;;5061131;28;20052;-74
2021/12/25 08:56:56;;;;;;;6.45;1.92;;;26.90;99.90;;;;;;5056424;28;20021;-68
2021/12/25 08:59:23;;;;;;;8.38;2.25;;;26.90;99.90;;;;;;5062984;28;20063;-74
2021/12/25 09:01:50;;;;;;;5.60;2.00;;;26.80;99.90;;;;;;5059899;28;20048;-69
2021/12/25 09:04:17;;;;;;;11.13;7.85;;;26.70;99.90;;;;;;5061506;28;20024;-68
2021/12/25 09:06:44;;;;;;;23.75;16.63;;;26.80;99.90;;;;;;5060842;28;20024;-70
2021/12/25 09:09:12;;;;;;;13.07;7.40;;;26.70;99.90;;;;;;5059602;28;20507;-68
2021/12/25 09:11:40;;;;;;;16.08;9.80;;;26.70;99.90;;;;;;5057219;28;20077;-68
2021/12/25 09:14:08;;;;;;;18.60;13.07;;;26.60;99.90;;;;;;5061250;28;20124;-74
2021/12/25 09:16:35;;;;;;;6.35;3.28;;;26.50;99.90;;;;;;5059711;28;20372;-73
2021/12/25 09:19:03;;;;;;;6.15;4.40;;;26.50;99.90;;;;;;5060459;28;20017;-74
2021/12/25 09:21:30;;;;;;;3.83;1.90;;;26.40;99.90;;;;;;5059543;28;20021;-68
2021/12/25 09:23:57;;;;;;;6.65;2.70;;;26.30;99.90;;;;;;5061247;28;20021;-67
2021/12/25 09:26:24;;;;;;;6.85;4.97;;;26.20;99.90;;;;;;5060615;28;20332;-68
2021/12/25 09:28:51;;;;;;;6.68;2.92;;;26.00;99.90;;;;;;5057573;28;20017;-68
2021/12/25 09:31:19;;;;;;;4.15;1.75;;;25.90;99.90;;;;;;4357490;28;9999932;-73
2021/12/25 09:33:46;;;;;;;4.80;1.95;;;25.80;99.90;;;;;;5055992;28;20013;-70
2021/12/25 09:36:13;;;;;;;6.50;1.90;;;25.70;99.90;;;;;;5056294;28;20012;-68
2021/12/25 09:38:40;;;;;;;6.90;2.05;;;25.60;99.90;;;;;;5058717;28;20020;-70
2021/12/25 09:41:07;;;;;;;4.63;2.10;;;25.50;99.90;;;;;;5060068;28;20493;-69
2021/12/25 09:43:35;;;;;;;5.07;2.03;;;25.50;99.90;;;;;;5045867;28;20041;-70
2021/12/25 09:46:02;;;;;;;10.55;6.68;;;25.40;99.90;;;;;;5044227;28;20053;-74
2021/12/25 09:48:30;;;;;;;10.70;5.75;;;25.30;99.90;;;;;;5045650;28;20025;-68
2021/12/25 09:50:57;;;;;;;6.65;2.20;;;25.20;99.90;;;;;;5048488;28;20443;-69
2021/12/25 09:53:25;;;;;;;5.78;2.13;;;25.20;99.90;;;;;;5048555;28;20025;-68
2021/12/25 09:55:53;;;;;;;10.73;2.45;;;25.20;99.90;;;;;;5046732;28;20144;-73
2021/12/25 09:58:21;;;;;;;19.23;12.80;;;25.20;99.90;;;;;;5046201;28;20766;-67
2021/12/25 10:00:51;;;;;;;7.55;2.58;;;25.10;99.90;;;;;;5046454;28;20427;-68
2021/12/25 10:03:21;;;;;;;6.22;2.53;;;25.10;99.90;;;;;;5046205;28;20017;-67
2021/12/25 10:05:50;;;;;;;6.03;2.53;;;25.00;99.90;;;;;;5045986;28;20017;-74
2021/12/25 10:08:24;;;;;;;4.88;2.40;;;25.00;99.90;;;;;;5057587;28;20025;-69
2021/12/25 10:10:57;;;;;;;4.60;1.90;;;25.00;99.90;;;;;;5060207;28;20036;-69
2021/12/25 10:13:28;;;;;;;7.30;1.98;;;24.90;99.90;;;;;;5046302;28;20017;-68
2021/12/25 10:16:17;;;;;;;4.35;2.13;;;24.90;99.90;;;;;;5046048;28;20100;-67
2021/12/25 10:18:45;;;;;;;6.68;2.10;;;24.70;99.90;;;;;;5046014;28;20090;-68
2021/12/25 10:21:22;;;;;;;3.60;1.88;;;24.70;99.90;;;;;;5045757;28;20040;-73
2021/12/25 10:24:12;;;;;;;5.20;2.00;;;24.80;99.90;;;;;;5046413;28;20711;-69
2021/12/25 10:26:41;;;;;;;5.50;1.77;;;24.70;99.90;;;;;;5046219;28;20025;-69
2021/12/25 10:29:22;;;;;;;7.20;2.10;;;24.60;99.90;;;;;;5052247;28;20598;-69
2021/12/25 10:31:58;;;;;;;4.18;2.30;;;24.60;99.90;;;;;;5052901;28;20028;-69
2021/12/25 10:34:29;;;;;;;7.00;1.90;;;24.60;99.90;;;;;;5046919;28;20027;-69
2021/12/25 10:37:11;;;;;;;6.88;2.30;;;24.50;99.90;;;;;;5046092;28;20021;-69
2021/12/25 10:39:39;;;;;;;3.65;1.52;;;24.40;99.90;;;;;;5045934;28;20423;-69
2021/12/25 10:42:18;;;;;;;5.85;1.90;;;24.50;99.90;;;;;;5043835;28;20506;-73
2021/12/25 10:44:51;;;;;;;7.28;2.20;;;24.40;99.90;;;;;;5045614;28;20049;-69
2021/12/25 10:47:31;;;;;;;7.93;2.00;;;24.40;99.90;;;;;;5053279;28;20021;-68
2021/12/25 10:50:08;;;;;;;7.13;2.40;;;24.30;99.90;;;;;;5046201;28;20017;-67
2021/12/25 10:52:41;;;;;;;5.93;2.53;;;24.20;99.90;;;;;;5044742;28;20538;-68
2021/12/25 10:55:27;;;;;;;4.88;1.80;;;24.20;99.90;;;;;;5048472;28;20020;-68
2021/12/25 10:57:59;;;;;;;8.00;1.83;;;24.10;99.90;;;;;;5048633;28;20028;-69
2021/12/25 11:00:31;;;;;;;7.10;2.30;;;24.10;99.90;;;;;;5055742;28;20020;-75
2021/12/25 11:03:03;;;;;;;5.72;1.95;;;24.20;99.90;;;;;;5048430;28;20103;-69
2021/12/25 11:05:38;;;;;;;3.47;1.63;;;24.10;99.90;;;;;;5047685;28;20028;-75
2021/12/25 11:08:13;;;;;;;6.57;2.65;;;24.20;99.90;;;;;;5048512;28;20032;-68
2021/12/25 11:10:55;;;;;;;6.18;2.15;;;24.10;99.90;;;;;;5048320;28;20533;-69
2021/12/25 11:13:31;;;;;;;7.82;1.75;;;24.10;99.90;;;;;;5048700;28;20025;-72
2021/12/25 11:16:28;;;;;;;8.82;2.22;;;24.20;99.90;;;;;;5059746;28;20036;-68
2021/12/25 11:19:11;;;;;;;6.53;2.60;;;24.10;99.90;;;;;;5052532;28;20559;-72
2021/12/25 11:21:55;;;;;;;12.30;4.75;;;24.10;99.90;;;;;;5059045;28;20056;-75
2021/12/25 11:24:38;;;;;;;9.93;3.55;;;24.00;99.90;;;;;;5060740;28;20542;-68
2021/12/25 11:27:06;;;;;;;;;;;23.90;99.90;;;;;;5060311;28;20467;-74
2021/12/25 11:29:36;;;;;;;6.15;2.05;;;23.80;99.90;;;;;;5058435;28;19913;-68
2021/12/25 11:32:06;;;;;;;7.43;2.83;;;23.80;99.90;;;;;;5060625;28;20067;-68
2021/12/25 11:34:34;;;;;;;9.07;6.03;;;23.80;99.90;;;;;;5059230;28;20059;-68
2021/12/25 11:37:02;;;;;;;3.90;2.10;;;23.70;99.90;;;;;;5060211;28;20488;-73
2021/12/25 11:39:31;;;;;;;7.50;2.58;;;23.80;99.90;;;;;;5059752;28;20103;-68
2021/12/25 11:42:08;;;;;;;6.43;1.52;;;23.60;99.90;;;;;;5061573;28;20028;-69
2021/12/25 11:44:44;;;;;;;8.18;2.25;;;23.80;99.90;;;;;;5059411;28;20063;-68
2021/12/25 11:47:37;;;;;;;4.13;1.88;;;23.80;99.90;;;;;;5060552;28;20141;-73
2021/12/25 11:50:13;;;;;;;7.22;1.95;;;23.90;99.90;;;;;;5060352;28;20048;-68
2021/12/25 11:52:53;;;;;;;7.95;1.98;;;23.70;99.90;;;;;;5058486;28;20441;-67
2021/12/25 11:55:33;;;;;;;6.38;1.88;;;23.60;99.90;;;;;;5058579;28;20159;-67
2021/12/25 12:00:50;;;;;;;4.07;1.77;;;23.30;99.90;;;;;;5060330;28;20537;-74
2021/12/25 12:03:42;;;;;;;4.45;1.30;;;23.30;99.90;;;;;;5059645;28;20032;-68
2021/12/25 12:06:09;;;;;;;5.95;1.80;;;23.20;99.90;;;;;;5061564;28;20028;-74
2021/12/25 12:08:55;;;;;;;3.78;1.23;;;23.20;99.90;;;;;;5060447;28;20547;-68
2021/12/25 12:11:28;;;;;;;9.93;2.17;;;23.10;99.90;;;;;;5059693;28;20028;-74
2021/12/25 12:14:15;;;;;;;6.57;1.98;;;23.10;99.90;;;;;;5058082;28;20027;-69
2021/12/25 12:17:04;;;;;;;5.05;2.20;;;23.30;99.90;;;;;;5057196;28;20056;-74
2021/12/25 12:19:36;;;;;;;4.20;2.25;;;23.10;99.90;;;;;;5056690;28;20037;-68
2021/12/25 12:27:34;;;;;;;5.78;1.70;;;22.70;99.90;;;;;;5057045;28;20060;-67
2021/12/25 12:30:01;;;;;;;5.28;1.90;;;22.60;99.90;;;;;;5055638;28;20217;-73
2021/12/25 12:32:33;;;;;;;4.65;2.15;;;22.50;99.90;;;;;;5059619;28;20785;-68
2021/12/25 12:35:01;;;;;;;6.97;1.92;;;22.50;99.90;;;;;;5057448;28;20027;-72
2021/12/25 12:37:30;;;;;;;4.00;1.80;;;22.50;99.90;;;;;;5061698;28;20038;-73
2021/12/25 12:40:03;;;;;;;4.55;2.25;;;22.50;99.90;;;;;;5057167;28;20067;-72
2021/12/25 12:42:52;;;;;;;5.47;1.75;;;22.40;99.90;;;;;;5059952;28;20136;-67
2021/12/25 12:45:28;;;;;;;5.63;1.90;;;22.40;99.90;;;;;;5058855;28;20108;-66
2021/12/25 12:48:14;;;;;;;7.38;1.90;;;22.30;99.90;;;;;;5057291;28;20028;-67
2021/12/25 12:50:45;;;;;;;3.65;1.60;;;22.30;99.90;;;;;;5058163;28;20055;-69
2021/12/25 12:53:12;;;;;;;8.18;2.33;;;22.30;99.90;;;;;;5057516;28;20106;-67
2021/12/25 12:55:42;;;;;;;8.35;2.13;;;22.20;99.90;;;;;;5059123;28;20578;-67
2021/12/25 12:58:15;;;;;;;5.28;1.98;;;22.30;99.90;;;;;;5046340;28;20565;-72
2021/12/25 13:01:04;;;;;;;5.90;1.63;;;22.30;99.90;;;;;;5049499;28;20028;-68
2021/12/25 13:03:31;;;;;;;5.32;1.83;;;22.30;99.90;;;;;;5041882;28;20041;-68
2021/12/25 13:06:10;;;;;;;4.13;1.58;;;22.30;99.90;;;;;;5049510;28;20072;-68
2021/12/25 13:08:39;;;;;;;4.88;1.73;;;22.30;99.90;;;;;;5049823;28;20021;-72
2021/12/25 13:11:14;;;;;;;6.63;1.83;;;22.30;99.90;;;;;;5049178;28;20013;-72
2021/12/25 13:13:51;;;;;;;2.95;1.52;;;22.30;99.90;;;;;;5049330;28;20029;-68
2021/12/25 13:16:20;;;;;;;6.50;2.00;;;22.30;99.90;;;;;;5059263;28;20416;-73
2021/12/25 13:18:50;;;;;;;5.05;1.70;;;22.20;99.90;;;;;;5049606;28;20021;-68
2021/12/25 13:21:22;;;;;;;5.07;1.70;;;22.10;99.90;;;;;;5049481;28;20023;-73
2021/12/25 13:23:57;;;;;;;4.75;1.80;;;22.10;99.90;;;;;;5050431;28;20533;-68
2021/12/25 13:26:48;;;;;;;6.25;1.65;;;22.00;99.90;;;;;;5053513;28;20032;-68
2021/12/25 13:29:20;;;;;;;9.38;2.33;;;22.00;99.90;;;;;;5053214;28;20499;-68
2021/12/25 13:31:47;;;;;;;5.53;1.67;;;21.90;99.90;;;;;;5059748;28;20159;-70
2021/12/25 13:34:18;;;;;;;7.85;2.08;;;21.90;99.90;;;;;;5053607;28;20028;-72
2021/12/25 13:36:52;;;;;;;4.38;1.75;;;21.90;99.90;;;;;;5053688;28;20017;-72
2021/12/25 13:39:26;;;;;;;4.30;2.03;;;21.90;99.90;;;;;;5053197;28;20024;-73
2021/12/25 13:41:56;;;;;;;6.65;2.10;;;22.00;99.90;;;;;;5053227;28;20032;-68
2021/12/25 13:44:30;;;;;;;4.03;1.75;;;22.00;99.90;;;;;;5053144;28;20033;-73
2021/12/25 13:47:16;;;;;;;6.03;1.83;;;21.90;99.90;;;;;;5053994;28;20021;-70
2021/12/25 13:49:54;;;;;;;6.75;2.30;;;21.90;99.90;;;;;;5057574;28;20557;-68
2021/12/25 13:52:21;;;;;;;9.05;2.10;;;21.90;99.90;;;;;;5053085;28;20067;-68
2021/12/25 13:54:56;;;;;;;5.30;2.30;;;21.90;99.90;;;;;;5059076;28;20025;-68
2021/12/25 13:57:25;;;;;;;6.25;1.58;;;22.00;99.90;;;;;;5054058;28;20094;-73
2021/12/25 13:59:55;;;;;;;6.85;2.10;;;22.00;99.90;;;;;;5060843;28;20415;-68
2021/12/25 14:02:25;;;;;;;6.90;1.80;;;21.90;99.90;;;;;;5051567;28;20693;-68
2021/12/25 14:04:53;;;;;;;9.25;2.03;;;21.90;99.90;;;;;;5052914;28;20028;-68
2021/12/25 14:07:24;;;;;;;5.40;1.92;;;21.80;99.90;;;;;;5053427;28;20029;-69
2021/12/25 14:10:07;;;;;;;6.93;2.13;;;21.80;99.90;;;;;;5059984;28;20029;-68
2021/12/25 14:12:36;;;;;;;7.65;1.77;;;21.70;99.90;;;;;;5070051;28;20036;-73
2021/12/25 14:15:05;;;;;;;4.60;1.70;;;21.60;99.90;;;;;;5054848;28;20462;-70
2021/12/25 14:17:33;;;;;;;6.32;1.95;;;21.60;99.90;;;;;;5053146;28;20029;-68
2021/12/25 14:20:20;;;;;;;2.97;1.80;;;21.60;99.90;;;;;;5052894;28;20137;-69